createdAt,value
2023-05-02T00:00:14.384Z,7.55
2023-05-02T00:01:14.463Z,7.38
2023-05-02T00:02:14.581Z,7.30
2023-05-02T00:03:14.671Z,7.76
2023-05-02T00:04:14.716Z,8.85
2023-05-02T00:05:14.671Z,7.66
2023-05-02T00:06:14.791Z,7.41
2023-05-02T00:07:14.787Z,7.21
2023-05-02T00:08:14.866Z,7.29
2023-05-02T00:09:14.885Z,7.39
2023-05-02T00:10:14.943Z,6.91
2023-05-02T00:11:14.991Z,6.82
2023-05-02T00:12:15.050Z,6.66
2023-05-02T00:13:15.138Z,6.63
2023-05-02T00:14:15.152Z,6.40
2023-05-02T00:15:15.178Z,6.66
2023-05-02T00:16:15.318Z,6.29
2023-05-02T00:17:15.370Z,6.61
2023-05-02T00:18:15.446Z,6.66
2023-05-02T00:19:15.374Z,6.88
2023-05-02T00:20:15.371Z,7.23
2023-05-02T00:21:15.427Z,6.43
2023-05-02T00:22:15.460Z,6.68
2023-05-02T00:23:15.473Z,7.27
2023-05-02T00:24:15.561Z,6.65
2023-05-02T00:25:15.559Z,6.64
2023-05-02T00:26:15.533Z,7.04
2023-05-02T00:27:15.528Z,6.76
2023-05-02T00:28:15.530Z,6.65
2023-05-02T00:29:15.554Z,6.73
2023-05-02T00:30:15.600Z,7.22
2023-05-02T00:31:15.621Z,7.40
2023-05-02T00:32:15.613Z,7.82
2023-05-02T00:33:15.584Z,7.71
2023-05-02T00:34:15.616Z,7.24
2023-05-02T00:35:15.581Z,6.57
2023-05-02T00:36:15.634Z,6.87
2023-05-02T00:37:15.743Z,6.72
2023-05-02T00:38:15.795Z,6.96
2023-05-02T00:39:15.925Z,6.96
2023-05-02T00:40:16.122Z,7.08
2023-05-02T00:41:16.097Z,7.39
2023-05-02T00:42:16.220Z,7.04
2023-05-02T00:43:16.293Z,7.76
2023-05-02T00:44:16.302Z,8.07
2023-05-02T00:45:16.284Z,7.75
2023-05-02T00:46:16.306Z,7.73
2023-05-02T00:47:16.270Z,8.42
2023-05-02T00:48:16.302Z,8.55
2023-05-02T00:49:16.356Z,8.25
2023-05-02T00:50:16.309Z,7.88
2023-05-02T00:51:16.296Z,7.98
2023-05-02T00:52:16.341Z,7.74
2023-05-02T00:53:16.373Z,8.08
2023-05-02T00:54:16.368Z,8.27
2023-05-02T00:55:16.366Z,8.20
2023-05-02T00:56:16.368Z,7.51
2023-05-02T00:57:16.407Z,8.03
2023-05-02T00:58:16.473Z,8.01
2023-05-02T00:59:16.456Z,7.09
2023-05-02T01:00:16.429Z,7.08
2023-05-02T01:01:16.495Z,7.06
2023-05-02T01:02:16.505Z,7.11
2023-05-02T01:03:16.617Z,6.90
2023-05-02T01:04:16.648Z,6.71
2023-05-02T01:05:16.571Z,7.60
2023-05-02T01:06:16.635Z,7.82
2023-05-02T01:07:16.620Z,7.23
2023-05-02T01:08:16.609Z,7.86
2023-05-02T01:09:16.684Z,7.85
2023-05-02T01:10:16.688Z,7.86
2023-05-02T01:11:16.701Z,7.88
2023-05-02T01:12:16.696Z,7.82
2023-05-02T01:13:16.685Z,7.93
2023-05-02T01:14:16.702Z,8.05
2023-05-02T01:15:16.718Z,8.96
2023-05-02T01:16:16.770Z,8.36
2023-05-02T01:17:16.734Z,8.42
2023-05-02T01:18:16.712Z,9.16
2023-05-02T01:19:16.754Z,9.06
2023-05-02T01:20:16.753Z,9.06
2023-05-02T01:21:16.830Z,9.45
2023-05-02T01:22:16.940Z,9.21
2023-05-02T01:23:17.057Z,9.06
2023-05-02T01:24:17.142Z,8.87
2023-05-02T01:25:17.132Z,9.12
2023-05-02T01:26:17.107Z,8.77
2023-05-02T01:27:17.116Z,7.97
2023-05-02T01:28:17.123Z,7.69
2023-05-02T01:29:17.130Z,7.87
2023-05-02T01:30:17.243Z,7.77
2023-05-02T01:31:17.303Z,7.44
2023-05-02T01:32:17.219Z,7.01
2023-05-02T01:33:17.219Z,7.11
2023-05-02T01:34:17.274Z,6.69
2023-05-02T01:35:17.268Z,6.51
2023-05-02T01:36:17.337Z,6.26
2023-05-02T01:37:17.336Z,6.35
2023-05-02T01:38:17.342Z,6.32
2023-05-02T01:39:17.349Z,6.39
2023-05-02T01:40:17.372Z,6.42
2023-05-02T01:41:17.384Z,6.19
2023-05-02T01:42:17.426Z,6.42
2023-05-02T01:43:17.528Z,6.79
2023-05-02T01:44:17.524Z,6.86
2023-05-02T01:45:17.549Z,6.81
2023-05-02T01:46:17.592Z,7.23
2023-05-02T01:47:17.720Z,6.61
2023-05-02T01:48:17.562Z,6.68
2023-05-02T01:49:17.630Z,6.37
2023-05-02T01:50:17.723Z,6.48
2023-05-02T01:51:17.835Z,6.83
2023-05-02T01:52:17.836Z,6.36
2023-05-02T01:53:17.841Z,6.30
2023-05-02T01:54:17.833Z,6.19
2023-05-02T01:55:17.986Z,6.37
2023-05-02T01:56:17.846Z,5.88
2023-05-02T01:57:17.962Z,6.25
2023-05-02T01:58:18.048Z,6.50
2023-05-02T01:59:18.095Z,6.21
2023-05-02T02:00:18.080Z,5.88
2023-05-02T02:01:18.139Z,5.57
2023-05-02T02:02:18.077Z,5.44
2023-05-02T02:03:18.224Z,5.35
2023-05-02T02:04:18.277Z,5.34
2023-05-02T02:05:18.202Z,5.57
2023-05-02T02:06:18.285Z,5.55
2023-05-02T02:07:18.217Z,5.41
2023-05-02T02:08:18.272Z,5.77
2023-05-02T02:09:18.240Z,5.53
2023-05-02T02:10:18.350Z,5.60
2023-05-02T02:11:18.352Z,5.88
2023-05-02T02:12:18.927Z,5.34
2023-05-02T02:13:18.352Z,5.21
2023-05-02T02:14:18.360Z,5.85
2023-05-02T02:15:18.388Z,6.20
2023-05-02T02:16:18.425Z,5.74
2023-05-02T02:17:18.442Z,5.75
2023-05-02T02:18:18.430Z,5.43
2023-05-02T02:19:18.446Z,5.31
2023-05-02T02:20:18.462Z,5.42
2023-05-02T02:21:18.471Z,5.42
2023-05-02T02:22:18.469Z,5.30
2023-05-02T02:23:18.522Z,5.10
2023-05-02T02:24:18.541Z,5.22
2023-05-02T02:25:18.547Z,4.96
2023-05-02T02:26:18.560Z,4.81
2023-05-02T02:27:18.606Z,4.80
2023-05-02T02:28:18.623Z,5.12
2023-05-02T02:29:18.683Z,5.21
2023-05-02T02:30:18.700Z,4.95
2023-05-02T02:31:18.721Z,5.01
2023-05-02T02:32:18.695Z,5.34
2023-05-02T02:33:18.732Z,5.58
2023-05-02T02:34:18.734Z,5.72
2023-05-02T02:35:18.763Z,5.96
2023-05-02T02:36:18.774Z,5.53
2023-05-02T02:37:18.774Z,6.21
2023-05-02T02:38:18.851Z,6.26
2023-05-02T02:39:18.894Z,6.07
2023-05-02T02:40:18.849Z,6.11
2023-05-02T02:41:18.910Z,5.97
2023-05-02T02:42:18.918Z,6.18
2023-05-02T02:43:18.986Z,6.51
2023-05-02T02:44:18.948Z,6.42
2023-05-02T02:45:19.962Z,6.62
2023-05-02T02:46:19.053Z,6.68
2023-05-02T02:47:18.998Z,6.49
2023-05-02T02:48:19.161Z,6.25
2023-05-02T02:49:19.060Z,6.18
2023-05-02T02:50:19.075Z,6.36
2023-05-02T02:51:19.092Z,6.50
2023-05-02T02:52:19.082Z,6.14
2023-05-02T02:53:19.065Z,7.14
2023-05-02T02:54:26.427Z,6.84
2023-05-02T02:55:20.120Z,6.86
2023-05-02T02:56:19.104Z,6.92
2023-05-02T02:57:19.114Z,7.00
2023-05-02T02:58:19.102Z,6.97
2023-05-02T02:59:19.113Z,7.34
2023-05-02T03:00:19.044Z,7.42
2023-05-02T03:01:19.064Z,7.82
2023-05-02T03:02:19.065Z,7.93
2023-05-02T03:03:19.155Z,7.96
2023-05-02T03:04:19.076Z,9.09
2023-05-02T03:05:19.033Z,8.53
2023-05-02T03:06:19.109Z,8.78
2023-05-02T03:07:19.025Z,8.86
2023-05-02T03:08:19.130Z,8.92
2023-05-02T03:09:19.052Z,8.92
2023-05-02T03:10:18.988Z,9.25
2023-05-02T03:11:18.994Z,9.21
2023-05-02T03:12:19.065Z,9.53
2023-05-02T03:13:19.013Z,9.28
2023-05-02T03:14:19.498Z,9.08
2023-05-02T03:15:18.993Z,9.75
2023-05-02T03:16:19.046Z,9.65
2023-05-02T03:17:18.942Z,10.11
2023-05-02T03:18:18.986Z,9.75
2023-05-02T03:19:19.008Z,9.67
2023-05-02T03:20:19.061Z,9.27
2023-05-02T03:21:19.059Z,9.81
2023-05-02T03:22:19.053Z,10.16
2023-05-02T03:23:19.081Z,9.48
2023-05-02T03:24:19.475Z,10.05
2023-05-02T03:25:19.157Z,10.08
2023-05-02T03:26:19.171Z,9.77
2023-05-02T03:27:19.194Z,8.91
2023-05-02T03:28:19.216Z,8.34
2023-05-02T03:29:19.277Z,8.02
2023-05-02T03:30:19.253Z,7.71
2023-05-02T03:31:19.260Z,8.17
2023-05-02T03:32:19.296Z,8.19
2023-05-02T03:33:19.297Z,8.33
2023-05-02T03:34:19.345Z,7.75
2023-05-02T03:35:19.418Z,7.69
2023-05-02T03:36:19.410Z,7.23
2023-05-02T03:37:19.439Z,7.77
2023-05-02T03:38:19.427Z,8.25
2023-05-02T03:39:19.486Z,8.40
2023-05-02T03:40:19.573Z,8.97
2023-05-02T03:41:19.685Z,10.01
2023-05-02T03:42:19.712Z,9.59
2023-05-02T03:43:19.747Z,9.56
2023-05-02T03:44:19.794Z,9.43
2023-05-02T03:45:19.815Z,9.70
2023-05-02T03:46:19.849Z,10.17
2023-05-02T03:47:19.951Z,10.91
2023-05-02T03:48:19.844Z,10.71
2023-05-02T03:49:19.962Z,10.92
2023-05-02T03:50:19.887Z,10.63
2023-05-02T03:51:19.872Z,10.19
2023-05-02T03:52:19.897Z,9.84
2023-05-02T03:53:19.959Z,9.23
2023-05-02T03:54:19.958Z,9.40
2023-05-02T03:55:19.959Z,9.25
2023-05-02T03:56:20.021Z,9.42
2023-05-02T03:57:20.050Z,8.41
2023-05-02T03:58:20.076Z,8.71
2023-05-02T03:59:20.082Z,8.58
2023-05-02T04:00:20.098Z,8.72
2023-05-02T04:01:20.108Z,7.89
2023-05-02T04:02:20.166Z,8.04
2023-05-02T04:03:20.189Z,7.50
2023-05-02T04:04:20.331Z,7.72
2023-05-02T04:05:20.209Z,8.34
2023-05-02T04:06:20.267Z,8.40
2023-05-02T04:07:20.231Z,8.63
2023-05-02T04:08:20.257Z,8.04
2023-05-02T04:09:20.294Z,7.56
2023-05-02T04:10:20.287Z,7.17
2023-05-02T04:11:20.323Z,7.16
2023-05-02T04:12:20.332Z,7.07
2023-05-02T04:13:20.355Z,6.91
2023-05-02T04:14:20.381Z,7.30
2023-05-02T04:15:20.501Z,7.51
2023-05-02T04:16:20.436Z,7.86
2023-05-02T04:17:20.423Z,7.45
2023-05-02T04:18:20.491Z,7.34
2023-05-02T04:19:20.485Z,6.81
2023-05-02T04:20:20.530Z,7.76
2023-05-02T04:21:20.531Z,7.86
2023-05-02T04:22:20.539Z,7.97
2023-05-02T04:23:20.579Z,8.11
2023-05-02T04:24:20.607Z,7.90
2023-05-02T04:25:20.653Z,7.57
2023-05-02T04:26:20.642Z,7.77
2023-05-02T04:28:20.688Z,7.91
2023-05-02T04:29:20.705Z,7.53
2023-05-02T04:30:20.729Z,8.09
2023-05-02T04:31:20.856Z,7.82
2023-05-02T04:32:20.783Z,7.65
2023-05-02T04:33:20.816Z,7.35
2023-05-02T04:34:20.819Z,7.71
2023-05-02T04:35:20.833Z,7.85
2023-05-02T04:36:20.874Z,8.11
2023-05-02T04:37:21.277Z,7.86
2023-05-02T04:38:20.894Z,8.45
2023-05-02T04:39:20.918Z,7.64
2023-05-02T04:40:20.956Z,7.38
2023-05-02T04:41:20.970Z,7.13
2023-05-02T04:42:20.977Z,7.31
2023-05-02T04:43:23.221Z,7.70
2023-05-02T04:44:20.990Z,7.11
2023-05-02T04:45:21.019Z,7.28
2023-05-02T04:46:21.033Z,7.69
2023-05-02T04:47:21.002Z,7.28
2023-05-02T04:48:20.967Z,6.81
2023-05-02T04:49:20.939Z,7.39
2023-05-02T04:50:20.981Z,7.32
2023-05-02T04:51:20.958Z,7.00
2023-05-02T04:52:20.935Z,7.47
2023-05-02T04:53:20.946Z,7.80
2023-05-02T04:54:20.959Z,7.49
2023-05-02T04:55:20.919Z,6.73
2023-05-02T04:56:20.896Z,6.96
2023-05-02T04:57:21.976Z,6.19
2023-05-02T04:58:20.894Z,6.43
2023-05-02T04:59:20.916Z,5.89
2023-05-02T05:00:20.888Z,5.68
2023-05-02T05:01:20.940Z,5.71
2023-05-02T05:02:20.989Z,5.55
2023-05-02T05:03:21.044Z,5.81
2023-05-02T05:04:21.087Z,5.28
2023-05-02T05:05:21.174Z,4.89
2023-05-02T05:06:21.195Z,4.98
2023-05-02T05:07:21.100Z,4.85
2023-05-02T05:08:21.165Z,5.42
2023-05-02T05:09:21.181Z,5.50
2023-05-02T05:10:21.238Z,5.26
2023-05-02T05:11:21.240Z,5.31
2023-05-02T05:12:21.284Z,5.59
2023-05-02T05:13:21.349Z,6.02
2023-05-02T05:14:21.383Z,6.62
2023-05-02T05:15:21.395Z,6.74
2023-05-02T05:16:21.448Z,7.31
2023-05-02T05:17:21.436Z,7.24
2023-05-02T05:18:21.453Z,7.16
2023-05-02T05:19:21.534Z,7.58
2023-05-02T05:20:21.543Z,8.15
2023-05-02T05:21:21.545Z,8.31
2023-05-02T05:22:21.550Z,8.54
2023-05-02T05:23:21.935Z,8.97
2023-05-02T05:24:21.634Z,8.67
2023-05-02T05:25:21.640Z,8.72
2023-05-02T05:26:21.651Z,8.04
2023-05-02T05:27:21.683Z,8.13
2023-05-02T05:28:21.704Z,8.15
2023-05-02T05:29:21.736Z,8.97
2023-05-02T05:30:21.749Z,8.48
2023-05-02T05:31:21.748Z,8.28
2023-05-02T05:32:21.850Z,8.48
2023-05-02T05:33:21.822Z,8.34
2023-05-02T05:34:21.800Z,8.68
2023-05-02T05:35:21.900Z,9.40
2023-05-02T05:36:23.548Z,11.04
2023-05-02T05:37:21.858Z,12.94
2023-05-02T05:38:21.874Z,15.23
2023-05-02T05:39:21.866Z,17.33
2023-05-02T05:40:21.907Z,21.09
2023-05-02T05:41:21.896Z,22.38
2023-05-02T05:42:21.916Z,28.42
2023-05-02T05:43:22.023Z,30.20
2023-05-02T05:44:22.072Z,33.77
2023-05-02T05:45:22.104Z,38.34
2023-05-02T05:46:22.175Z,43.58
2023-05-02T05:47:22.385Z,51.59
2023-05-02T05:48:22.289Z,57.79
2023-05-02T05:49:22.460Z,64.79
2023-05-02T05:50:22.287Z,72.83
2023-05-02T05:51:22.327Z,80.01
2023-05-02T05:52:22.372Z,101.46
2023-05-02T05:53:22.377Z,109.41
2023-05-02T05:54:22.396Z,112.02
2023-05-02T05:55:22.423Z,114.33
2023-05-02T05:56:22.435Z,120.39
2023-05-02T05:57:22.437Z,124.34
2023-05-02T05:58:22.440Z,131.23
2023-05-02T05:59:22.460Z,144.43
2023-05-02T06:00:22.465Z,159.86
2023-05-02T06:01:22.456Z,165.97
2023-05-02T06:02:22.529Z,183.64
2023-05-02T06:03:22.547Z,201.96
2023-05-02T06:04:22.593Z,217.90
2023-05-02T06:05:22.570Z,233.15
2023-05-02T06:06:22.698Z,246.95
2023-05-02T06:07:22.670Z,261.10
2023-05-02T06:08:22.695Z,276.98
2023-05-02T06:09:22.781Z,290.39
2023-05-02T06:10:22.832Z,309.84
2023-05-02T06:11:22.900Z,321.96
2023-05-02T06:12:22.951Z,339.01
2023-05-02T06:13:22.988Z,354.35
2023-05-02T06:14:23.035Z,357.55
2023-05-02T06:15:23.108Z,375.52
2023-05-02T06:16:23.201Z,388.79
2023-05-02T06:17:23.208Z,409.43
2023-05-02T06:18:23.229Z,432.79
2023-05-02T06:19:23.541Z,446.40
2023-05-02T06:20:23.338Z,462.38
2023-05-02T06:21:23.368Z,474.37
2023-05-02T06:22:25.093Z,489.64
2023-05-02T06:23:23.424Z,512.92
2023-05-02T06:24:23.482Z,515.44
2023-05-02T06:25:23.522Z,527.53
2023-05-02T06:26:23.535Z,529.18
2023-05-02T06:27:23.552Z,545.00
2023-05-02T06:28:23.613Z,555.17
2023-05-02T06:29:23.652Z,565.80
2023-05-02T06:30:24.005Z,571.27
2023-05-02T06:31:23.758Z,573.25
2023-05-02T06:32:23.740Z,578.65
2023-05-02T06:33:23.785Z,623.69
2023-05-02T06:34:23.832Z,617.16
2023-05-02T06:35:23.873Z,630.29
2023-05-02T06:36:23.872Z,640.51
2023-05-02T06:37:23.925Z,655.64
2023-05-02T06:38:23.951Z,652.25
2023-05-02T06:39:23.978Z,663.37
2023-05-02T06:40:23.998Z,668.89
2023-05-02T06:41:24.016Z,670.75
2023-05-02T06:42:24.046Z,677.16
2023-05-02T06:43:24.109Z,686.39
2023-05-02T06:44:24.111Z,684.52
2023-05-02T06:45:24.146Z,697.27
2023-05-02T06:46:24.182Z,693.67
2023-05-02T06:47:24.208Z,696.25
2023-05-02T06:48:24.180Z,698.46
2023-05-02T06:49:24.214Z,714.16
2023-05-02T06:50:24.590Z,792.44
2023-05-02T06:51:24.185Z,891.37
2023-05-02T06:52:24.216Z,837.67
2023-05-02T06:53:24.226Z,783.47
2023-05-02T06:54:24.237Z,753.35
2023-05-02T06:55:24.505Z,575.86
2023-05-02T06:56:24.264Z,573.40
2023-05-02T06:57:24.293Z,617.05
2023-05-02T06:58:24.304Z,587.41
2023-05-02T06:59:24.334Z,575.31
2023-05-02T07:00:24.339Z,558.03
2023-05-02T07:01:24.410Z,540.91
2023-05-02T07:02:24.385Z,542.60
2023-05-02T07:03:24.371Z,533.72
2023-05-02T07:04:24.486Z,542.88
2023-05-02T07:05:24.412Z,537.72
2023-05-02T07:06:24.455Z,550.83
2023-05-02T07:07:24.424Z,556.12
2023-05-02T07:08:24.452Z,558.63
2023-05-02T07:09:24.456Z,557.31
2023-05-02T07:10:24.521Z,581.50
2023-05-02T07:11:24.523Z,567.87
2023-05-02T07:12:24.546Z,580.25
2023-05-02T07:13:24.497Z,578.55
2023-05-02T07:14:24.529Z,575.74
2023-05-02T07:15:24.539Z,603.64
2023-05-02T07:16:24.569Z,599.46
2023-05-02T07:17:24.571Z,587.32
2023-05-02T07:18:24.512Z,587.33
2023-05-02T07:19:25.086Z,587.29
2023-05-02T07:20:24.582Z,599.06
2023-05-02T07:21:24.514Z,607.33
2023-05-02T07:22:24.526Z,613.15
2023-05-02T07:23:25.497Z,617.30
2023-05-02T07:24:24.531Z,620.08
2023-05-02T07:25:24.530Z,624.10
2023-05-02T07:26:24.529Z,626.53
2023-05-02T07:27:24.529Z,629.92
2023-05-02T07:28:24.561Z,613.40
2023-05-02T07:29:24.554Z,637.73
2023-05-02T07:30:24.552Z,639.38
2023-05-02T07:31:24.602Z,654.99
2023-05-02T07:32:24.580Z,652.35
2023-05-02T07:33:24.571Z,651.28
2023-05-02T07:34:24.543Z,667.62
2023-05-02T07:35:24.572Z,678.26
2023-05-02T07:36:24.645Z,676.45
2023-05-02T07:37:24.598Z,663.25
2023-05-02T07:38:24.722Z,692.36
2023-05-02T07:39:24.681Z,669.56
2023-05-02T07:40:25.056Z,676.81
2023-05-02T07:41:24.796Z,680.50
2023-05-02T07:42:24.853Z,682.98
2023-05-02T07:43:24.859Z,666.61
2023-05-02T07:44:24.903Z,514.71
2023-05-02T07:45:25.093Z,469.78
2023-05-02T07:46:24.997Z,225.70
2023-05-02T07:47:24.974Z,124.45
2023-05-02T07:48:26.206Z,115.77
2023-05-02T07:49:24.939Z,137.84
2023-05-02T07:50:24.968Z,164.69
2023-05-02T07:51:24.943Z,159.14
2023-05-02T07:52:24.920Z,178.58
2023-05-02T07:53:24.937Z,197.45
2023-05-02T07:54:24.921Z,203.37
2023-05-02T07:55:24.909Z,209.04
2023-05-02T07:56:24.891Z,213.72
2023-05-02T07:57:24.910Z,216.80
2023-05-02T07:58:24.879Z,222.42
2023-05-02T07:59:24.885Z,221.78
2023-05-02T08:00:24.879Z,230.07
2023-05-02T08:01:24.877Z,237.22
2023-05-02T08:02:24.984Z,242.08
2023-05-02T08:03:24.934Z,237.33
2023-05-02T08:04:25.038Z,243.78
2023-05-02T08:05:25.052Z,245.45
2023-05-02T08:06:24.847Z,246.41
2023-05-02T08:07:24.847Z,248.48
2023-05-02T08:08:24.851Z,257.22
2023-05-02T08:09:24.852Z,265.45
2023-05-02T08:10:24.837Z,267.94
2023-05-02T08:11:24.807Z,261.57
2023-05-02T08:12:24.810Z,271.39
2023-05-02T08:13:24.844Z,278.40
2023-05-02T08:14:24.795Z,278.67
2023-05-02T08:15:24.782Z,286.84
2023-05-02T08:16:24.825Z,291.28
2023-05-02T08:17:24.811Z,292.54
2023-05-02T08:18:24.757Z,305.67
2023-05-02T08:19:24.760Z,312.90
2023-05-02T08:20:24.727Z,312.27
2023-05-02T08:21:24.750Z,320.40
2023-05-02T08:22:24.741Z,319.07
2023-05-02T08:23:24.740Z,321.44
2023-05-02T08:24:25.554Z,323.43
2023-05-02T08:25:24.695Z,333.73
2023-05-02T08:26:24.752Z,332.84
2023-05-02T08:27:24.680Z,339.97
2023-05-02T08:28:24.702Z,342.65
2023-05-02T08:29:24.716Z,348.04
2023-05-02T08:30:24.679Z,355.35
2023-05-02T08:31:24.735Z,357.75
2023-05-02T08:32:24.685Z,352.03
2023-05-02T08:33:24.716Z,363.10
2023-05-02T08:34:24.672Z,350.24
2023-05-02T08:35:24.674Z,350.16
2023-05-02T08:36:24.650Z,342.36
2023-05-02T08:37:24.610Z,345.48
2023-05-02T08:38:24.635Z,339.55
2023-05-02T08:39:24.635Z,329.72
2023-05-02T08:40:37.791Z,330.19
2023-05-02T08:41:25.599Z,330.40
2023-05-02T08:42:24.708Z,319.46
2023-05-02T08:43:24.601Z,324.42
2023-05-02T08:44:24.612Z,314.69
2023-05-02T08:45:25.063Z,317.29
2023-05-02T08:46:24.664Z,309.55
2023-05-02T08:47:24.814Z,309.28
2023-05-02T08:48:24.601Z,300.08
2023-05-02T08:49:24.627Z,268.59
2023-05-02T08:50:24.610Z,256.96
2023-05-02T08:51:24.653Z,206.96
2023-05-02T08:52:24.593Z,141.07
2023-05-02T08:53:24.654Z,81.48
2023-05-02T08:54:24.730Z,64.03
2023-05-02T08:55:24.756Z,87.91
2023-05-02T08:56:24.750Z,110.22
2023-05-02T08:57:24.769Z,129.31
2023-05-02T08:58:24.796Z,137.20
2023-05-02T08:59:24.815Z,141.41
2023-05-02T09:00:25.090Z,146.73
2023-05-02T09:01:24.967Z,150.73
2023-05-02T09:02:25.003Z,161.99
2023-05-02T09:03:25.034Z,171.27
2023-05-02T09:04:25.119Z,182.61
2023-05-02T09:05:25.164Z,199.61
2023-05-02T09:06:25.192Z,216.75
2023-05-02T09:07:25.251Z,232.29
2023-05-02T09:08:25.269Z,238.09
2023-05-02T09:09:25.310Z,251.50
2023-05-02T09:10:25.591Z,260.00
2023-05-02T09:11:25.396Z,276.37
2023-05-02T09:12:25.391Z,302.51
2023-05-02T09:13:25.445Z,305.85
2023-05-02T09:14:25.463Z,307.50
2023-05-02T09:15:25.494Z,308.83
2023-05-02T09:16:25.745Z,309.64
2023-05-02T09:17:25.538Z,313.94
2023-05-02T09:18:25.577Z,331.27
2023-05-02T09:19:25.549Z,340.19
2023-05-02T09:20:25.575Z,347.39
2023-05-02T09:21:25.591Z,371.61
2023-05-02T09:22:25.718Z,376.42
2023-05-02T09:23:26.586Z,387.37
2023-05-02T09:24:25.699Z,406.87
2023-05-02T09:25:25.692Z,432.67
2023-05-02T09:26:25.688Z,444.76
2023-05-02T09:27:25.734Z,469.26
2023-05-02T09:28:25.727Z,464.44
2023-05-02T09:29:25.787Z,431.80
2023-05-02T09:30:26.116Z,357.36
2023-05-02T09:32:25.820Z,236.21
2023-05-02T09:33:25.833Z,247.32
2023-05-02T09:34:25.774Z,249.73
2023-05-02T09:35:25.785Z,213.53
2023-05-02T09:36:25.783Z,189.27
2023-05-02T09:37:25.795Z,180.07
2023-05-02T09:38:25.753Z,174.72
2023-05-02T09:39:26.391Z,171.97
2023-05-02T09:40:26.091Z,188.17
2023-05-02T09:41:25.709Z,210.45
2023-05-02T09:42:25.748Z,211.79
2023-05-02T09:43:25.732Z,214.90
2023-05-02T09:44:25.713Z,230.32
2023-05-02T09:45:26.108Z,317.56
2023-05-02T09:46:25.746Z,295.81
2023-05-02T09:47:25.704Z,266.90
2023-05-02T09:48:25.663Z,243.79
2023-05-02T09:49:25.653Z,232.16
2023-05-02T09:50:25.715Z,235.30
2023-05-02T09:51:25.665Z,231.90
2023-05-02T09:52:25.692Z,233.53
2023-05-02T09:53:25.639Z,226.29
2023-05-02T09:54:25.657Z,222.68
2023-05-02T09:55:25.632Z,217.13
2023-05-02T09:56:26.169Z,217.44
2023-05-02T09:57:25.639Z,213.24
2023-05-02T09:58:25.633Z,204.34
2023-05-02T09:59:25.670Z,197.14
2023-05-02T10:00:25.600Z,189.50
2023-05-02T10:01:25.635Z,183.13
2023-05-02T10:02:25.667Z,176.98
2023-05-02T10:03:25.584Z,170.12
2023-05-02T10:04:25.641Z,168.82
2023-05-02T10:05:25.558Z,166.01
2023-05-02T10:06:25.700Z,159.34
2023-05-02T10:07:25.559Z,157.02
2023-05-02T10:08:25.556Z,150.45
2023-05-02T10:09:25.559Z,152.04
2023-05-02T10:10:25.548Z,146.41
2023-05-02T10:11:25.535Z,140.73
2023-05-02T10:12:25.559Z,133.50
2023-05-02T10:13:25.527Z,131.06
2023-05-02T10:14:27.044Z,126.01
2023-05-02T10:15:25.498Z,124.96
2023-05-02T10:16:25.582Z,119.90
2023-05-02T10:17:25.505Z,114.70
2023-05-02T10:18:25.511Z,109.87
2023-05-02T10:19:25.508Z,105.47
2023-05-02T10:20:26.892Z,102.94
2023-05-02T10:21:25.495Z,99.52
2023-05-02T10:22:25.481Z,96.77
2023-05-02T10:23:25.496Z,96.06
2023-05-02T10:24:25.466Z,89.85
2023-05-02T10:25:25.448Z,85.22
2023-05-02T10:26:25.533Z,85.60
2023-05-02T10:27:25.423Z,82.86
2023-05-02T10:28:25.435Z,82.38
2023-05-02T10:29:25.459Z,77.45
2023-05-02T10:30:25.421Z,76.14
2023-05-02T10:31:25.390Z,74.72
2023-05-02T10:32:25.455Z,77.32
2023-05-02T10:33:25.392Z,73.92
2023-05-02T10:34:25.412Z,74.74
2023-05-02T10:35:25.380Z,74.35
2023-05-02T10:36:25.628Z,69.67
2023-05-02T10:37:25.371Z,70.76
2023-05-02T10:38:25.365Z,68.99
2023-05-02T10:39:25.377Z,69.89
2023-05-02T10:40:25.343Z,70.78
2023-05-02T10:41:25.633Z,69.47
2023-05-02T10:42:25.324Z,69.02
2023-05-02T10:43:25.312Z,68.47
2023-05-02T10:44:26.715Z,68.43
2023-05-02T10:45:25.334Z,69.28
2023-05-02T10:46:25.351Z,70.53
2023-05-02T10:47:25.363Z,72.00
2023-05-02T10:48:25.294Z,73.30
2023-05-02T10:49:25.335Z,76.04
2023-05-02T10:50:26.444Z,78.12
2023-05-02T10:51:25.287Z,80.03
2023-05-02T10:52:25.284Z,80.86
2023-05-02T10:53:25.288Z,82.94
2023-05-02T10:54:25.281Z,83.81
2023-05-02T10:55:25.312Z,86.52
2023-05-02T10:56:26.398Z,87.49
2023-05-02T10:57:25.387Z,86.98
2023-05-02T10:58:25.417Z,93.67
2023-05-02T10:59:25.493Z,97.51
2023-05-02T11:00:25.572Z,98.40
2023-05-02T11:01:25.957Z,103.60
2023-05-02T11:02:25.799Z,102.49
2023-05-02T11:03:25.811Z,103.76
2023-05-02T11:04:25.776Z,106.03
2023-05-02T11:05:25.809Z,107.39
2023-05-02T11:06:25.948Z,107.06
2023-05-02T11:07:25.948Z,105.68
2023-05-02T11:08:25.989Z,108.17
2023-05-02T11:09:26.039Z,108.43
2023-05-02T11:10:26.094Z,111.89
2023-05-02T11:11:26.154Z,108.21
2023-05-02T11:12:26.186Z,107.87
2023-05-02T11:13:26.270Z,111.52
2023-05-02T11:14:26.335Z,113.29
2023-05-02T11:15:26.345Z,112.05
2023-05-02T11:16:26.398Z,104.37
2023-05-02T11:17:26.442Z,96.54
2023-05-02T11:18:26.504Z,83.57
2023-05-02T11:19:27.322Z,75.61
2023-05-02T11:20:26.591Z,67.41
2023-05-02T11:21:26.608Z,57.39
2023-05-02T11:22:26.649Z,53.06
2023-05-02T11:23:26.746Z,50.17
2023-05-02T11:24:26.809Z,46.66
2023-05-02T11:25:28.178Z,42.21
2023-05-02T11:26:26.925Z,38.37
2023-05-02T11:27:26.963Z,35.53
2023-05-02T11:28:27.051Z,36.44
2023-05-02T11:29:27.096Z,33.58
2023-05-02T11:30:27.172Z,30.00
2023-05-02T11:31:27.696Z,25.77
2023-05-02T11:32:27.504Z,23.71
2023-05-02T11:33:27.370Z,25.48
2023-05-02T11:34:27.413Z,24.69
2023-05-02T11:35:27.506Z,26.29
2023-05-02T11:36:27.632Z,27.23
2023-05-02T11:37:28.732Z,29.21
2023-05-02T11:38:27.648Z,29.70
2023-05-02T11:39:27.738Z,29.63
2023-05-02T11:40:27.771Z,29.69
2023-05-02T11:41:27.834Z,30.73
2023-05-02T11:42:27.932Z,31.31
2023-05-02T11:43:29.970Z,31.69
2023-05-02T11:44:27.969Z,31.92
2023-05-02T11:45:27.953Z,32.64
2023-05-02T11:46:28.014Z,34.14
2023-05-02T11:47:27.974Z,34.02
2023-05-02T11:48:27.927Z,33.76
2023-05-02T11:49:27.922Z,32.74
2023-05-02T11:50:27.959Z,31.95
2023-05-02T11:51:27.921Z,31.29
2023-05-02T11:52:27.885Z,30.84
2023-05-02T11:53:27.905Z,27.94
2023-05-02T11:54:27.925Z,26.97
2023-05-02T11:55:27.887Z,28.09
2023-05-02T11:56:27.905Z,28.16
2023-05-02T11:57:27.876Z,28.15
2023-05-02T11:58:27.883Z,27.71
2023-05-02T11:59:27.881Z,26.87
2023-05-02T12:00:27.826Z,25.22
2023-05-02T12:01:27.844Z,22.75
2023-05-02T12:02:27.967Z,12.10
2023-05-02T12:03:28.026Z,9.81
2023-05-02T12:04:27.824Z,6.07
2023-05-02T12:05:27.822Z,4.95
2023-05-02T12:06:27.888Z,3.84
2023-05-02T12:07:27.808Z,4.62
2023-05-02T12:08:27.837Z,4.08
2023-05-02T12:09:27.777Z,4.59
2023-05-02T12:10:27.783Z,5.25
2023-05-02T12:11:27.853Z,4.36
2023-05-02T12:12:27.764Z,3.66
2023-05-02T12:13:27.772Z,4.45
2023-05-02T12:14:27.779Z,4.41
2023-05-02T12:15:27.803Z,4.35
2023-05-02T12:16:27.846Z,5.42
2023-05-02T12:17:27.777Z,7.06
2023-05-02T12:18:27.725Z,7.62
2023-05-02T12:19:27.767Z,7.49
2023-05-02T12:20:27.761Z,7.81
2023-05-02T12:21:27.709Z,7.57
2023-05-02T12:22:27.731Z,7.89
2023-05-02T12:23:27.703Z,8.21
2023-05-02T12:24:27.681Z,12.56
2023-05-02T12:25:27.696Z,19.54
2023-05-02T12:26:27.753Z,41.33
2023-05-02T12:27:27.697Z,51.71
2023-05-02T12:28:27.674Z,75.72
2023-05-02T12:29:27.687Z,63.65
2023-05-02T12:30:27.826Z,49.51
2023-05-02T12:31:27.913Z,41.17
2023-05-02T12:32:27.929Z,35.85
2023-05-02T12:33:27.899Z,24.08
2023-05-02T12:34:27.927Z,19.03
2023-05-02T12:35:27.957Z,13.39
2023-05-02T12:36:27.997Z,12.51
2023-05-02T12:37:28.036Z,10.12
2023-05-02T12:38:28.049Z,8.36
2023-05-02T12:39:28.103Z,7.38
2023-05-02T12:40:28.132Z,6.13
2023-05-02T12:41:28.198Z,4.96
2023-05-02T12:42:28.217Z,4.02
2023-05-02T12:43:28.285Z,2.63
2023-05-02T12:44:28.306Z,2.31
2023-05-02T12:45:28.382Z,2.14
2023-05-02T12:46:28.507Z,1.89
2023-05-02T12:47:28.586Z,1.51
2023-05-02T12:48:28.548Z,1.47
2023-05-02T12:49:28.592Z,1.04
2023-05-02T12:50:28.654Z,1.02
2023-05-02T12:51:28.764Z,0.82
2023-05-02T12:52:28.772Z,0.91
2023-05-02T12:53:28.824Z,0.86
2023-05-02T12:54:28.892Z,0.87
2023-05-02T12:55:28.947Z,0.87
2023-05-02T12:56:29.015Z,0.80
2023-05-02T12:57:29.044Z,0.85